LIPH/TSF METAR and TAF weather

Enter ICAO airport designator
Station Type Date Time Source
LIPH METAR 2019/08/25 17:50 UTC NOAA

LIPH 251750Z VRB01KT CAVOK 27/20 Q1016


Station Type Date Time Source
LIPH Decoded METAR 2019/08/25 17:50 UTC NOAA

Station name not available
Aug 25, 2019 - 01:50 PM EDT / 2019.08.25 1750 UTC
Wind: Variable at 1 MPH (1 KT):0
Visibility: greater than 7 mile(s):0
Temperature: 80 F (27 C)
Dew Point: 68 F (20 C)
Relative Humidity: 65%
Pressure (altimeter): 30.00 in. Hg (1016 hPa)
ob: LIPH 251750Z VRB01KT CAVOK 27/20 Q1016
cycle: 18

Station Type Date Time Source
LIPH TAF 2019/08/25 18:21 UTC NOAA

TAF LIPH 251700Z 2518/2618 VRB05KT 9999 SCT030

Example: see airport list